Capitol Reef National Park, UT

11:09 AM MDT on October 31, 2014 (GMT -0600)
MesoWest SR-24 @ Wayne Summit UT US UTAH DOT | Change Station
CLOSE
Current Station
Personal Weather Station
Location: Koosharem, UT
Elevation: 8377 ft
Nearby Weather Stations

Elev 8377 ft 38.45 °N, 111.83 °W | Updated 39 minutes ago

Partly Cloudy
Partly Cloudy
50 °F
Feels Like 48 °F
N
5
Wind Variable Wind from NE
Gusts 8.0 mph

Today
High -- | Low -- °F
--% Chance of Precip.
Yesterday
High -- | Low -- °F
Precip. -- in
7:51 AM 6:28 PM
First Quarter, 57% visible
Pressure 30.07 in
Visibility 10.0 miles
Clouds Clear
Windchill 48 °F
Dew Point 18 °F
Humidity 27%
Rainfall -999.00 in
Snow Depth Not available.
UV 3 out of 12
Pollen .90 out of 12
Air Quality Not available.
Flu Activity Not available.
METAR KBCE 311653Z AUTO 14015KT 10SM CLR 12/M08 A3025 RMK AO2 SLP182 T01171078 TSNO

More Conditions Fewer Conditions

Pressure 30.07 in
Visibility 10.0 miles
Clouds Clear
Windchill 48 °F
Dew Point 18 °F
Humidity 27%
Rainfall -999.00 in
Snow Depth Not available.
UV 3 out of 12
Pollen .90 out of 12
Air Quality Not available.
Flu Activity Not available.
METAR KBCE 311653Z AUTO 14015KT 10SM CLR 12/M08 A3025 RMK AO2 SLP182 T01171078 TSNO

More Conditions Fewer Conditions

10-Day Weather Forecast

Almanac

Astronomy

Oct. 31, 2014 Rise Set
Actual Time
Civil Twilight
Nautical Twilight
Astronomical Twilight
Moon
Length of Visible Light
Length of Day
Tomorrow will be .
, % of the Moon is Illuminated

Today's Extremes

State Highs State Lows

Community

WunderPhotos

Upload Photos

1,766,660 photos uploaded!

WunderBlogs® & News

Nearby

Air Quality

  Air Quality AQ Index Pollutant
Not available.

Snow Depth

Station Depth Elevation

Earthquake Activity

City Distance Mag. Time & Date
Minimum magnitude displayed is 2.5.

Coastal Water Temperatures

Place Temperature

Nearby Weather Stations